createdAt,value
2018-03-26T00:00:09.291Z,1005.30
2018-03-26T00:01:09.231Z,1005.32
2018-03-26T00:02:09.189Z,1005.28
2018-03-26T00:03:09.451Z,1005.33
2018-03-26T00:04:09.096Z,1005.28
2018-03-26T00:05:09.201Z,1005.25
2018-03-26T00:06:09.123Z,1005.30
2018-03-26T00:07:09.058Z,1005.32
2018-03-26T00:08:08.921Z,1005.27
2018-03-26T00:09:09.168Z,1005.29
2018-03-26T00:10:08.827Z,1005.25
2018-03-26T00:11:08.841Z,1005.33
2018-03-26T00:12:08.734Z,1005.31
2018-03-26T00:13:08.691Z,1005.30
2018-03-26T00:14:08.642Z,1005.26
2018-03-26T00:15:08.897Z,1005.27
2018-03-26T00:16:08.552Z,1005.26
2018-03-26T00:17:08.562Z,1005.32
2018-03-26T00:18:08.468Z,1005.30
2018-03-26T00:19:08.422Z,1005.25
2018-03-26T00:20:08.373Z,1005.31
2018-03-26T00:21:08.327Z,1005.33
2018-03-26T00:22:08.584Z,1005.32
2018-03-26T00:23:08.286Z,1005.30
2018-03-26T00:24:08.202Z,1005.31
2018-03-26T00:25:08.146Z,1005.29
2018-03-26T00:26:09.143Z,1005.33
2018-03-26T00:27:08.475Z,1005.33
2018-03-26T00:28:08.192Z,1005.29
2018-03-26T00:29:08.474Z,1005.33
2018-03-26T00:30:08.108Z,1005.36
2018-03-26T00:31:07.879Z,1005.34
2018-03-26T00:32:07.833Z,1005.36
2018-03-26T00:33:07.814Z,1005.36
2018-03-26T00:34:07.739Z,1005.41
2018-03-26T00:35:07.699Z,1005.42
2018-03-26T00:36:07.951Z,1005.34
2018-03-26T00:37:07.607Z,1005.35
2018-03-26T00:38:08.305Z,1005.33
2018-03-26T00:39:07.518Z,1005.34
2018-03-26T00:40:07.471Z,1005.41
2018-03-26T00:41:07.423Z,1005.40
2018-03-26T00:42:07.392Z,1005.41
2018-03-26T00:43:07.634Z,1005.35
2018-03-26T00:44:07.289Z,1005.46
2018-03-26T00:45:07.252Z,1005.43
2018-03-26T00:46:07.198Z,1005.45
2018-03-26T00:47:07.155Z,1005.45
2018-03-26T00:48:07.110Z,1005.42
2018-03-26T00:49:07.063Z,1005.42
2018-03-26T00:50:07.318Z,1005.41
2018-03-26T00:51:06.973Z,1005.41
2018-03-26T00:52:06.929Z,1005.43
2018-03-26T00:53:06.884Z,1005.44
2018-03-26T00:54:06.842Z,1005.45
2018-03-26T00:55:06.995Z,1005.46
2018-03-26T00:56:07.053Z,1005.48
2018-03-26T00:57:06.702Z,1005.44
2018-03-26T00:58:06.659Z,1005.51
2018-03-26T00:59:06.609Z,1005.47
2018-03-26T01:00:06.564Z,1005.49
2018-03-26T01:01:06.569Z,1005.49
2018-03-26T01:02:06.774Z,1005.50
2018-03-26T01:03:06.431Z,1005.52
2018-03-26T01:04:06.384Z,1005.56
2018-03-26T01:05:06.338Z,1005.53
2018-03-26T01:06:06.291Z,1005.54
2018-03-26T01:07:06.296Z,1005.51
2018-03-26T01:08:06.518Z,1005.54
2018-03-26T01:09:06.160Z,1005.56
2018-03-26T01:10:06.116Z,1005.54
2018-03-26T01:11:06.072Z,1005.57
2018-03-26T01:12:06.031Z,1005.53
2018-03-26T01:13:05.972Z,1005.57
2018-03-26T01:14:06.227Z,1005.62
2018-03-26T01:15:05.879Z,1005.62
2018-03-26T01:16:05.892Z,1005.63
2018-03-26T01:17:05.797Z,1005.65
2018-03-26T01:18:05.748Z,1005.65
2018-03-26T01:19:05.707Z,1005.65
2018-03-26T01:20:05.965Z,1005.64
2018-03-26T01:21:05.609Z,1005.66
2018-03-26T01:22:05.566Z,1005.64
2018-03-26T01:23:05.517Z,1005.64
2018-03-26T01:24:05.473Z,1005.65
2018-03-26T01:25:05.430Z,1005.64
2018-03-26T01:26:05.691Z,1005.70
2018-03-26T01:27:05.338Z,1005.65
2018-03-26T01:28:05.289Z,1005.66
2018-03-26T01:29:05.245Z,1005.71
2018-03-26T01:30:05.199Z,1005.67
2018-03-26T01:31:05.156Z,1005.68
2018-03-26T01:32:05.108Z,1005.70
2018-03-26T01:33:05.363Z,1005.69
2018-03-26T01:34:05.018Z,1005.65
2018-03-26T01:35:04.976Z,1005.68
2018-03-26T01:36:04.929Z,1005.70
2018-03-26T01:37:04.888Z,1005.68
2018-03-26T01:38:04.840Z,1005.74
2018-03-26T01:39:04.798Z,1005.70
2018-03-26T01:40:05.044Z,1005.74
2018-03-26T01:41:04.702Z,1005.81
2018-03-26T01:42:04.655Z,1005.80
2018-03-26T01:43:04.616Z,1005.80
2018-03-26T01:44:04.564Z,1005.85
2018-03-26T01:45:04.519Z,1005.87
2018-03-26T01:46:04.472Z,1005.90
2018-03-26T01:47:04.728Z,1005.86
2018-03-26T01:48:04.383Z,1005.88
2018-03-26T01:49:04.335Z,1005.91
2018-03-26T01:50:04.295Z,1005.94
2018-03-26T01:51:04.244Z,1005.94
2018-03-26T01:52:04.198Z,1005.91
2018-03-26T01:53:04.163Z,1005.95
2018-03-26T01:54:04.415Z,1005.92
2018-03-26T01:55:04.073Z,1005.91
2018-03-26T01:56:04.019Z,1005.91
2018-03-26T01:57:03.971Z,1005.96
2018-03-26T01:58:03.927Z,1005.93
2018-03-26T01:59:03.891Z,1005.95
2018-03-26T02:00:03.833Z,1005.97
2018-03-26T02:01:04.087Z,1006.03
2018-03-26T02:02:03.742Z,1005.98
2018-03-26T02:03:03.698Z,1005.98
2018-03-26T02:04:03.656Z,1006.03
2018-03-26T02:05:03.604Z,1005.99
2018-03-26T02:06:03.559Z,1006.04
2018-03-26T02:07:03.814Z,1006.05
2018-03-26T02:08:03.466Z,1006.06
2018-03-26T02:09:03.427Z,1006.05
2018-03-26T02:10:03.377Z,1006.06
2018-03-26T02:11:03.330Z,1006.06
2018-03-26T02:12:03.283Z,1006.07
2018-03-26T02:13:03.540Z,1006.05
2018-03-26T02:14:03.196Z,1006.03
2018-03-26T02:15:03.151Z,1006.09
2018-03-26T02:16:03.099Z,1006.08
2018-03-26T02:17:03.055Z,1006.11
2018-03-26T02:18:03.007Z,1006.10
2018-03-26T02:19:03.263Z,1006.08
2018-03-26T02:20:02.922Z,1006.11
2018-03-26T02:21:02.874Z,1006.08
2018-03-26T02:22:02.875Z,1006.12
2018-03-26T02:23:02.829Z,1006.13
2018-03-26T02:24:02.732Z,1006.12
2018-03-26T02:25:02.990Z,1006.17
2018-03-26T02:26:02.638Z,1006.10
2018-03-26T02:27:02.592Z,1006.16
2018-03-26T02:28:02.547Z,1006.15
2018-03-26T02:29:02.501Z,1006.19
2018-03-26T02:30:02.456Z,1006.16
2018-03-26T02:31:02.724Z,1006.21
2018-03-26T02:32:02.362Z,1006.23
2018-03-26T02:33:02.315Z,1006.20
2018-03-26T02:34:02.271Z,1006.24
2018-03-26T02:35:02.221Z,1006.25
2018-03-26T02:36:02.175Z,1006.21
2018-03-26T02:37:02.128Z,1006.26
2018-03-26T02:38:02.384Z,1006.29
2018-03-26T02:39:02.037Z,1006.20
2018-03-26T02:40:01.991Z,1006.26
2018-03-26T02:41:01.955Z,1006.24
2018-03-26T02:42:01.953Z,1006.24
2018-03-26T02:43:01.849Z,1006.26
2018-03-26T02:44:01.811Z,1006.25
2018-03-26T02:45:02.060Z,1006.28
2018-03-26T02:46:01.710Z,1006.28
2018-03-26T02:47:01.673Z,1006.27
2018-03-26T02:48:01.623Z,1006.27
2018-03-26T02:49:01.590Z,1006.28
2018-03-26T02:50:01.527Z,1006.32
2018-03-26T02:51:01.486Z,1006.31
2018-03-26T02:52:01.730Z,1006.28
2018-03-26T02:53:01.393Z,1006.33
2018-03-26T02:54:01.335Z,1006.32
2018-03-26T02:55:01.288Z,1006.29
2018-03-26T02:56:01.242Z,1006.33
2018-03-26T02:57:01.194Z,1006.30
2018-03-26T02:58:01.184Z,1006.33
2018-03-26T02:59:01.400Z,1006.27
2018-03-26T03:00:01.060Z,1006.29
2018-03-26T03:01:01.006Z,1006.28
2018-03-26T03:02:00.960Z,1006.26
2018-03-26T03:03:00.911Z,1006.26
2018-03-26T03:04:00.870Z,1006.28
2018-03-26T03:05:00.817Z,1006.27
2018-03-26T03:06:01.074Z,1006.27
2018-03-26T03:07:00.732Z,1006.26
2018-03-26T03:08:00.676Z,1006.30
2018-03-26T03:09:00.628Z,1006.32
2018-03-26T03:10:00.586Z,1006.31
2018-03-26T03:11:00.535Z,1006.33
2018-03-26T03:12:00.488Z,1006.33
2018-03-26T03:13:00.796Z,1006.37
2018-03-26T03:14:00.403Z,1006.34
2018-03-26T03:15:00.352Z,1006.40
2018-03-26T03:16:00.301Z,1006.37
2018-03-26T03:17:00.255Z,1006.32
2018-03-26T03:18:00.205Z,1006.29
2018-03-26T03:19:00.457Z,1006.34
2018-03-26T03:20:00.108Z,1006.34
2018-03-26T03:21:00.064Z,1006.39
2018-03-26T03:22:00.024Z,1006.42
2018-03-26T03:22:59.966Z,1006.39
2018-03-26T03:23:59.918Z,1006.34
2018-03-26T03:25:00.176Z,1006.36
2018-03-26T03:25:59.827Z,1006.36
2018-03-26T03:26:59.779Z,1006.36
2018-03-26T03:27:59.729Z,1006.38
2018-03-26T03:28:59.682Z,1006.39
2018-03-26T03:29:59.635Z,1006.33
2018-03-26T03:30:59.887Z,1006.39
2018-03-26T03:31:59.541Z,1006.42
2018-03-26T03:32:59.491Z,1006.34
2018-03-26T03:33:59.445Z,1006.40
2018-03-26T03:34:59.395Z,1006.36
2018-03-26T03:35:59.348Z,1006.39
2018-03-26T03:36:59.604Z,1006.38
2018-03-26T03:37:59.253Z,1006.42
2018-03-26T03:38:59.204Z,1006.41
2018-03-26T03:39:59.162Z,1006.37
2018-03-26T03:40:59.113Z,1006.40
2018-03-26T03:41:59.061Z,1006.39
2018-03-26T03:42:59.314Z,1006.42
2018-03-26T03:43:58.971Z,1006.39
2018-03-26T03:44:58.925Z,1006.40
2018-03-26T03:45:58.870Z,1006.42
2018-03-26T03:46:58.827Z,1006.40
2018-03-26T03:47:58.775Z,1006.40
2018-03-26T03:48:58.729Z,1006.44
2018-03-26T03:49:58.981Z,1006.38
2018-03-26T03:50:58.668Z,1006.39
2018-03-26T03:51:58.585Z,1006.41
2018-03-26T03:52:58.537Z,1006.40
2018-03-26T03:53:58.490Z,1006.38
2018-03-26T03:54:58.440Z,1006.40
2018-03-26T03:55:58.393Z,1006.38
2018-03-26T03:56:58.647Z,1006.37
2018-03-26T03:57:58.305Z,1006.37
2018-03-26T03:58:58.551Z,1006.38
2018-03-26T03:59:58.202Z,1006.43
2018-03-26T04:00:58.160Z,1006.39
2018-03-26T04:01:58.115Z,1006.39
2018-03-26T04:02:58.128Z,1006.41
2018-03-26T04:03:58.312Z,1006.39
2018-03-26T04:04:58.166Z,1006.40
2018-03-26T04:05:57.920Z,1006.41
2018-03-26T04:06:57.872Z,1006.41
2018-03-26T04:07:57.823Z,1006.42
2018-03-26T04:08:57.776Z,1006.44
2018-03-26T04:09:57.729Z,1006.43
2018-03-26T04:10:57.979Z,1006.44
2018-03-26T04:11:57.631Z,1006.42
2018-03-26T04:12:57.594Z,1006.46
2018-03-26T04:13:57.540Z,1006.44
2018-03-26T04:14:57.488Z,1006.51
2018-03-26T04:15:57.500Z,1006.49
2018-03-26T04:16:57.394Z,1006.56
2018-03-26T04:17:57.677Z,1006.54
2018-03-26T04:18:57.302Z,1006.51
2018-03-26T04:19:57.256Z,1006.52
2018-03-26T04:20:57.205Z,1006.51
2018-03-26T04:21:57.262Z,1006.49
2018-03-26T04:22:57.112Z,1006.52
2018-03-26T04:23:57.073Z,1006.54
2018-03-26T04:24:57.332Z,1006.56
2018-03-26T04:25:56.964Z,1006.57
2018-03-26T04:26:56.919Z,1006.58
2018-03-26T04:27:57.070Z,1006.56
2018-03-26T04:28:56.825Z,1006.56
2018-03-26T04:29:56.778Z,1006.59
2018-03-26T04:30:57.029Z,1006.57
2018-03-26T04:31:56.680Z,1006.61
2018-03-26T04:32:56.633Z,1006.56
2018-03-26T04:33:56.588Z,1006.57
2018-03-26T04:34:56.538Z,1006.62
2018-03-26T04:35:56.491Z,1006.65
2018-03-26T04:36:56.747Z,1006.68
2018-03-26T04:37:56.397Z,1006.65
2018-03-26T04:38:56.353Z,1006.70
2018-03-26T04:39:56.301Z,1006.70
2018-03-26T04:40:56.259Z,1006.71
2018-03-26T04:41:56.260Z,1006.67
2018-03-26T04:42:56.466Z,1006.70
2018-03-26T04:43:56.113Z,1006.67
2018-03-26T04:44:56.064Z,1006.64
2018-03-26T04:45:56.020Z,1006.72
2018-03-26T04:46:55.967Z,1006.67
2018-03-26T04:47:55.922Z,1006.73
2018-03-26T04:48:56.376Z,1006.68
2018-03-26T04:49:55.827Z,1006.67
2018-03-26T04:50:55.780Z,1006.69
2018-03-26T04:51:55.734Z,1006.68
2018-03-26T04:52:55.685Z,1006.69
2018-03-26T04:53:55.647Z,1006.75
2018-03-26T04:54:55.942Z,1006.72
2018-03-26T04:55:55.576Z,1006.71
2018-03-26T04:56:55.508Z,1006.72
2018-03-26T04:57:55.451Z,1006.75
2018-03-26T04:58:55.400Z,1006.71
2018-03-26T04:59:55.353Z,1006.74
2018-03-26T05:00:55.321Z,1006.76
2018-03-26T05:01:55.559Z,1006.75
2018-03-26T05:02:55.210Z,1006.75
2018-03-26T05:03:55.163Z,1006.85
2018-03-26T05:04:55.122Z,1006.78
2018-03-26T05:05:55.069Z,1006.82
2018-03-26T05:06:55.021Z,1006.77
2018-03-26T05:07:54.973Z,1006.87
2018-03-26T05:08:55.233Z,1006.84
2018-03-26T05:09:54.886Z,1006.86
2018-03-26T05:10:54.840Z,1006.88
2018-03-26T05:11:54.791Z,1006.90
2018-03-26T05:12:54.797Z,1006.90
2018-03-26T05:13:54.691Z,1006.96
2018-03-26T05:14:54.645Z,1006.96
2018-03-26T05:15:54.897Z,1007.04
2018-03-26T05:16:54.557Z,1007.01
2018-03-26T05:17:54.499Z,1007.05
2018-03-26T05:18:54.451Z,1007.01
2018-03-26T05:19:54.413Z,1007.00
2018-03-26T05:20:54.357Z,1007.02
2018-03-26T05:21:54.308Z,1007.06
2018-03-26T05:22:54.561Z,1007.07
2018-03-26T05:23:54.224Z,1007.09
2018-03-26T05:24:54.172Z,1007.17
2018-03-26T05:25:54.124Z,1007.17
2018-03-26T05:26:54.075Z,1007.13
2018-03-26T05:27:54.026Z,1007.13
2018-03-26T05:28:53.980Z,1007.10
2018-03-26T05:29:54.233Z,1007.15
2018-03-26T05:30:54.180Z,1007.21
2018-03-26T05:31:53.836Z,1007.22
2018-03-26T05:32:53.786Z,1007.25
2018-03-26T05:33:53.738Z,1007.25
2018-03-26T05:34:53.691Z,1007.31
2018-03-26T05:35:53.944Z,1007.30
2018-03-26T05:36:53.647Z,1007.30
2018-03-26T05:37:53.547Z,1007.28
2018-03-26T05:38:53.501Z,1007.31
2018-03-26T05:39:53.455Z,1007.35
2018-03-26T05:40:53.932Z,1007.34
2018-03-26T05:41:55.350Z,1007.34
2018-03-26T05:42:54.060Z,1007.37
2018-03-26T05:43:53.947Z,1007.37
2018-03-26T05:44:53.806Z,1007.42
2018-03-26T05:45:54.152Z,1007.39
2018-03-26T05:46:53.727Z,1007.42
2018-03-26T05:47:55.093Z,1007.45
2018-03-26T05:48:54.203Z,1007.50
2018-03-26T05:49:53.578Z,1007.52
2018-03-26T05:50:53.398Z,1007.57
2018-03-26T05:51:53.464Z,1007.57
2018-03-26T05:52:53.704Z,1007.58
2018-03-26T05:53:55.204Z,1007.61
2018-03-26T05:54:52.761Z,1007.62
2018-03-26T05:55:53.027Z,1007.63
2018-03-26T05:56:52.852Z,1007.62
2018-03-26T05:57:54.084Z,1007.64
2018-03-26T05:58:53.057Z,1007.66
2018-03-26T05:59:53.702Z,1007.64
2018-03-26T06:00:52.696Z,1007.69
2018-03-26T06:01:53.540Z,1007.72
2018-03-26T06:02:52.460Z,1007.72
2018-03-26T06:04:52.429Z,1007.80
2018-03-26T06:05:52.754Z,1007.77
2018-03-26T06:06:52.413Z,1007.76
2018-03-26T06:07:52.730Z,1007.81
2018-03-26T06:08:52.984Z,1007.78
2018-03-26T06:09:52.785Z,1007.84
2018-03-26T06:10:52.270Z,1007.84
2018-03-26T06:11:52.876Z,1007.85
2018-03-26T06:12:52.505Z,1007.89
2018-03-26T06:13:52.047Z,1007.90
2018-03-26T06:14:53.495Z,1007.87
2018-03-26T06:15:52.056Z,1007.89
2018-03-26T06:16:51.920Z,1007.85
2018-03-26T06:17:52.293Z,1007.87
2018-03-26T06:18:53.257Z,1007.87
2018-03-26T06:19:52.244Z,1007.93
2018-03-26T06:20:52.984Z,1007.96
2018-03-26T06:21:52.431Z,1007.96
2018-03-26T06:22:51.412Z,1007.94
2018-03-26T06:23:51.413Z,1007.98
2018-03-26T06:24:51.520Z,1007.97
2018-03-26T06:25:51.270Z,1007.98
2018-03-26T06:26:51.521Z,1007.95
2018-03-26T06:27:51.184Z,1007.91
2018-03-26T06:28:51.388Z,1007.94
2018-03-26T06:29:51.105Z,1007.86
2018-03-26T06:30:51.033Z,1007.95
2018-03-26T06:31:51.036Z,1007.94
2018-03-26T06:32:50.940Z,1008.00
2018-03-26T06:33:51.495Z,1007.93
2018-03-26T06:34:50.849Z,1008.05
2018-03-26T06:35:51.097Z,1007.99
2018-03-26T06:36:50.802Z,1008.04
2018-03-26T06:37:50.705Z,1008.02
2018-03-26T06:38:50.660Z,1007.98
2018-03-26T06:39:50.614Z,1008.03
2018-03-26T06:40:50.860Z,1008.04
2018-03-26T06:41:50.620Z,1008.01
2018-03-26T06:42:50.480Z,1008.10
2018-03-26T06:43:50.469Z,1008.04
2018-03-26T06:44:50.532Z,1008.10
2018-03-26T06:45:50.325Z,1008.03
2018-03-26T06:46:50.780Z,1008.10
2018-03-26T06:47:50.235Z,1008.13
2018-03-26T06:48:50.188Z,1008.17
2018-03-26T06:49:50.206Z,1008.15
2018-03-26T06:50:50.094Z,1008.20
2018-03-26T06:51:50.143Z,1008.20
2018-03-26T06:52:50.295Z,1008.20
2018-03-26T06:53:49.998Z,1008.21
2018-03-26T06:54:49.901Z,1008.29
2018-03-26T06:55:49.855Z,1008.25
2018-03-26T06:56:49.855Z,1008.29
2018-03-26T06:57:49.760Z,1008.30
2018-03-26T06:58:50.013Z,1008.28
2018-03-26T06:59:49.817Z,1008.34
2018-03-26T07:00:49.669Z,1008.36
2018-03-26T07:01:49.772Z,1008.35
2018-03-26T07:02:49.528Z,1008.40
2018-03-26T07:03:49.531Z,1008.44
2018-03-26T07:04:49.830Z,1008.43
2018-03-26T07:05:49.384Z,1008.44
2018-03-26T07:06:49.540Z,1008.43
2018-03-26T07:07:49.293Z,1008.46
2018-03-26T07:08:49.298Z,1008.45
2018-03-26T07:09:49.244Z,1008.48
2018-03-26T07:10:49.498Z,1008.52
2018-03-26T07:11:49.302Z,1008.49
2018-03-26T07:12:49.053Z,1008.57
2018-03-26T07:13:49.207Z,1008.51
2018-03-26T07:14:49.008Z,1008.55
2018-03-26T07:15:48.921Z,1008.52
2018-03-26T07:16:49.073Z,1008.48
2018-03-26T07:17:48.820Z,1008.56
2018-03-26T07:18:49.021Z,1008.52
2018-03-26T07:19:48.873Z,1008.52
2018-03-26T07:20:48.678Z,1008.53
2018-03-26T07:21:48.833Z,1008.46
2018-03-26T07:22:48.584Z,1008.50
2018-03-26T07:23:48.893Z,1008.50
2018-03-26T07:24:48.742Z,1008.54
2018-03-26T07:25:48.448Z,1008.55
2018-03-26T07:26:48.600Z,1008.54
2018-03-26T07:27:48.353Z,1008.54
2018-03-26T07:28:48.355Z,1008.55
2018-03-26T07:29:48.557Z,1008.58
2018-03-26T07:30:48.514Z,1008.63
2018-03-26T07:31:48.219Z,1008.58
2018-03-26T07:32:48.230Z,1008.63
2018-03-26T07:33:48.227Z,1008.61
2018-03-26T07:34:48.085Z,1008.59
2018-03-26T07:35:48.142Z,1008.61
2018-03-26T07:36:47.986Z,1008.60
2018-03-26T07:37:48.188Z,1008.63
2018-03-26T07:38:48.047Z,1008.68
2018-03-26T07:39:47.950Z,1008.71
2018-03-26T07:40:47.753Z,1008.72
2018-03-26T07:41:47.906Z,1008.70
2018-03-26T07:42:47.667Z,1008.75
2018-03-26T07:43:47.660Z,1008.73
2018-03-26T07:44:48.006Z,1008.77
2018-03-26T07:45:47.518Z,1008.79
2018-03-26T07:46:47.672Z,1008.81
2018-03-26T07:47:47.527Z,1008.77
2018-03-26T07:48:47.653Z,1008.80
2018-03-26T07:49:47.384Z,1008.82
2018-03-26T07:50:47.340Z,1008.78
2018-03-26T07:51:48.402Z,1008.77
2018-03-26T07:52:47.246Z,1008.79
2018-03-26T07:53:47.349Z,1008.79
2018-03-26T07:54:47.151Z,1008.77
2018-03-26T07:55:47.105Z,1008.76
2018-03-26T07:56:47.226Z,1008.80
2018-03-26T07:57:47.365Z,1008.78
2018-03-26T07:58:46.968Z,1008.78
2018-03-26T07:59:47.021Z,1008.76
2018-03-26T08:00:46.832Z,1008.80
2018-03-26T08:01:47.104Z,1008.78
2018-03-26T08:02:46.851Z,1008.82
2018-03-26T08:03:47.108Z,1008.81
2018-03-26T08:04:46.693Z,1008.82
2018-03-26T08:05:46.600Z,1008.78
2018-03-26T08:06:46.603Z,1008.79
2018-03-26T08:07:46.756Z,1008.79
2018-03-26T08:08:46.610Z,1008.79
2018-03-26T08:09:46.865Z,1008.81
2018-03-26T08:10:46.491Z,1008.83
2018-03-26T08:11:46.426Z,1008.80
2018-03-26T08:12:46.427Z,1008.82
2018-03-26T08:13:46.282Z,1008.85
2018-03-26T08:14:46.237Z,1008.87
2018-03-26T08:15:46.439Z,1008.88
2018-03-26T08:16:46.212Z,1008.90
2018-03-26T08:17:46.103Z,1008.92
2018-03-26T08:18:46.154Z,1008.92
2018-03-26T08:19:46.009Z,1008.98
2018-03-26T08:20:45.912Z,1008.99
2018-03-26T08:21:46.268Z,1009.00
2018-03-26T08:22:45.882Z,1009.04
2018-03-26T08:23:45.952Z,1009.04
2018-03-26T08:24:45.932Z,1009.04
2018-03-26T08:25:45.687Z,1008.99
2018-03-26T08:26:45.691Z,1009.04
2018-03-26T08:27:45.798Z,1009.05
2018-03-26T08:28:45.998Z,1009.08
2018-03-26T08:29:45.704Z,1009.06
2018-03-26T08:30:45.455Z,1009.07
2018-03-26T08:31:45.612Z,1009.12
2018-03-26T08:32:45.424Z,1009.04
2018-03-26T08:33:45.538Z,1009.08
2018-03-26T08:34:45.324Z,1009.12
2018-03-26T08:35:45.529Z,1009.11
2018-03-26T08:36:45.233Z,1009.16
2018-03-26T08:37:45.188Z,1009.17
2018-03-26T08:38:45.291Z,1009.15
2018-03-26T08:39:45.096Z,1009.19
2018-03-26T08:40:45.000Z,1009.21
2018-03-26T08:41:45.005Z,1009.24
2018-03-26T08:42:45.214Z,1009.27
2018-03-26T08:43:44.915Z,1009.26
2018-03-26T08:52:12.819Z,1009.19
2018-03-26T08:53:12.974Z,1009.28
2018-03-26T08:54:12.787Z,1009.20
2018-03-26T08:55:12.681Z,1009.26
2018-03-26T08:56:12.697Z,1009.21
2018-03-26T08:57:12.796Z,1009.28
2018-03-26T08:58:12.848Z,1009.30
2018-03-26T08:59:12.552Z,1009.31
2018-03-26T09:00:12.512Z,1009.30
2018-03-26T09:01:12.463Z,1009.30
2018-03-26T09:02:12.416Z,1009.20
2018-03-26T09:03:12.488Z,1009.26
2018-03-26T09:04:12.328Z,1009.27
2018-03-26T09:05:12.532Z,1009.26
2018-03-26T09:06:12.338Z,1009.32
2018-03-26T09:07:12.143Z,1009.32
2018-03-26T09:08:12.147Z,1009.37
2018-03-26T09:09:12.108Z,1009.36
2018-03-26T09:10:12.058Z,1009.32
2018-03-26T09:11:12.011Z,1009.31
2018-03-26T09:12:12.217Z,1009.31
2018-03-26T09:13:11.930Z,1009.30
2018-03-26T09:14:11.878Z,1009.31
2018-03-26T09:15:11.834Z,1009.29
2018-03-26T09:16:11.795Z,1009.32
2018-03-26T09:17:11.692Z,1009.28
2018-03-26T09:18:11.701Z,1009.30
2018-03-26T09:19:12.103Z,1009.32
2018-03-26T09:27:24.879Z,1009.40
2018-03-26T09:28:24.788Z,1009.40
2018-03-26T09:29:24.949Z,1009.41
2018-03-26T09:30:24.909Z,1009.47
2018-03-26T09:31:24.978Z,1009.39
2018-03-26T09:32:25.037Z,1009.43
2018-03-26T09:33:25.069Z,1009.45
2018-03-26T09:34:24.767Z,1009.47
2018-03-26T09:35:24.524Z,1009.45
2018-03-26T09:36:24.629Z,1009.47
2018-03-26T09:37:24.437Z,1009.48
2018-03-26T09:38:24.345Z,1009.48
2018-03-26T09:39:24.446Z,1009.49
2018-03-26T09:40:24.601Z,1009.46
2018-03-26T09:41:24.207Z,1009.46
2018-03-26T09:42:24.218Z,1009.43
2018-03-26T09:43:24.118Z,1009.49
2018-03-26T09:44:24.602Z,1009.48
2018-03-26T09:45:24.080Z,1009.46
2018-03-26T09:46:23.985Z,1009.48
2018-03-26T09:47:24.302Z,1009.45
2018-03-26T09:48:23.897Z,1009.45
2018-03-26T09:49:23.916Z,1009.50
2018-03-26T09:50:23.862Z,1009.50
2018-03-26T09:51:23.923Z,1009.49
2018-03-26T09:52:23.873Z,1009.50
2018-03-26T09:53:24.156Z,1009.49
2018-03-26T09:54:23.684Z,1009.47
2018-03-26T09:55:23.643Z,1009.52
2018-03-26T09:56:23.544Z,1009.49
2018-03-26T09:57:23.554Z,1009.48
2018-03-26T09:58:23.512Z,1009.46
2018-03-26T09:59:23.722Z,1009.49
2018-03-26T10:00:23.428Z,1009.49
2018-03-26T10:01:23.328Z,1009.45
2018-03-26T10:02:23.430Z,1009.47
2018-03-26T10:03:23.288Z,1009.41
2018-03-26T10:04:23.195Z,1009.43
2018-03-26T10:05:23.511Z,1009.47
2018-03-26T10:06:23.101Z,1009.45
2018-03-26T10:07:23.111Z,1009.47
2018-03-26T10:08:23.071Z,1009.50
2018-03-26T10:09:22.972Z,1009.49
2018-03-26T10:10:23.028Z,1009.57
2018-03-26T10:11:23.186Z,1009.55
2018-03-26T10:12:22.893Z,1009.62
2018-03-26T10:13:22.897Z,1009.61
2018-03-26T10:14:22.816Z,1009.62
2018-03-26T10:15:22.760Z,1009.62
2018-03-26T10:16:22.818Z,1009.64
2018-03-26T10:17:22.971Z,1009.63
2018-03-26T10:18:22.778Z,1009.61
2018-03-26T10:19:22.537Z,1009.62
2018-03-26T10:20:22.691Z,1009.62
2018-03-26T10:21:22.500Z,1009.59
2018-03-26T10:22:22.454Z,1009.64
2018-03-26T10:23:22.409Z,1009.62
2018-03-26T10:24:22.612Z,1009.62
2018-03-26T10:25:22.328Z,1009.62
2018-03-26T10:26:22.328Z,1009.62
2018-03-26T10:27:22.597Z,1009.64
2018-03-26T10:28:22.191Z,1009.64
2018-03-26T10:29:22.391Z,1009.64
2018-03-26T10:30:22.100Z,1009.67
2018-03-26T11:43:24.228Z,1009.96
2018-03-26T11:44:24.254Z,1009.93
2018-03-26T11:45:23.858Z,1009.97
2018-03-26T11:46:23.927Z,1010.02
2018-03-26T11:47:23.407Z,1009.97
2018-03-26T11:48:23.653Z,1009.98
2018-03-26T11:49:23.820Z,1009.96
2018-03-26T11:50:23.334Z,1009.95
2018-03-26T11:51:23.283Z,1009.90
2018-03-26T11:52:23.191Z,1009.96
2018-03-26T11:53:23.347Z,1009.92
2018-03-26T11:54:23.157Z,1009.92
2018-03-26T11:55:23.558Z,1009.87
2018-03-26T11:56:23.202Z,1009.91
2018-03-26T11:57:22.987Z,1009.92
2018-03-26T11:58:22.977Z,1009.90
2018-03-26T11:59:23.084Z,1009.90
2018-03-26T12:00:22.894Z,1009.90
2018-03-26T12:01:23.154Z,1009.89
2018-03-26T12:02:22.754Z,1009.89
2018-03-26T12:03:22.786Z,1009.85
2018-03-26T12:04:22.717Z,1009.87
2018-03-26T12:05:22.674Z,1009.84
2018-03-26T12:06:22.632Z,1009.86
2018-03-26T12:07:22.535Z,1009.87
2018-03-26T12:08:22.845Z,1009.87
2018-03-26T12:09:22.651Z,1009.86
2018-03-26T12:10:22.456Z,1009.90
2018-03-26T12:11:22.412Z,1009.86
2018-03-26T12:12:22.384Z,1009.90
2018-03-26T12:13:22.326Z,1009.88
2018-03-26T12:14:22.282Z,1009.89
2018-03-26T12:15:22.541Z,1009.92
2018-03-26T12:16:22.295Z,1009.90
2018-03-26T12:17:22.102Z,1009.96
2018-03-26T12:18:22.110Z,1010.00
2018-03-26T12:19:22.066Z,1009.98
2018-03-26T12:20:21.973Z,1009.97
2018-03-26T12:21:22.131Z,1010.01
2018-03-26T12:22:22.240Z,1010.03
2018-03-26T12:23:21.903Z,1010.01
2018-03-26T12:24:21.853Z,1010.01
2018-03-26T12:25:21.787Z,1009.95
2018-03-26T12:26:21.766Z,1010.02
2018-03-26T12:27:21.823Z,1009.99
2018-03-26T12:28:21.676Z,1009.99
2018-03-26T12:29:21.983Z,1009.96
2018-03-26T12:30:21.541Z,1009.97
2018-03-26T12:31:21.546Z,1009.94
2018-03-26T12:32:21.507Z,1009.97
2018-03-26T12:33:21.411Z,1010.00
2018-03-26T12:34:21.415Z,1009.99
2018-03-26T12:35:21.523Z,1010.01
2018-03-26T12:36:21.335Z,1009.99
2018-03-26T12:37:21.286Z,1009.95
2018-03-26T12:38:21.192Z,1009.94
2018-03-26T12:39:21.200Z,1009.98
2018-03-26T12:40:21.164Z,1009.92
2018-03-26T12:41:21.219Z,1009.92
2018-03-26T12:42:21.220Z,1009.97
2018-03-26T12:43:20.974Z,1009.93
2018-03-26T12:44:20.987Z,1009.96
2018-03-26T12:45:21.042Z,1009.96
2018-03-26T12:46:20.896Z,1009.97
2018-03-26T12:47:20.802Z,1009.93
2018-03-26T12:48:21.107Z,1009.91
2018-03-26T12:49:23.246Z,1009.91
2018-03-26T12:50:20.940Z,1009.91
2018-03-26T12:51:21.160Z,1009.93
2018-03-26T12:52:21.083Z,1009.92
2018-03-26T12:53:20.602Z,1009.95
2018-03-26T12:54:22.105Z,1009.99
2018-03-26T12:55:20.506Z,1009.99
2018-03-26T12:56:20.619Z,1009.97
2018-03-26T12:57:20.519Z,1010.00
2018-03-26T12:58:20.481Z,1009.97
2018-03-26T12:59:20.278Z,1009.97
2018-03-26T13:00:20.588Z,1009.99
2018-03-26T13:01:20.396Z,1009.96
2018-03-26T13:02:20.208Z,1010.02
2018-03-26T13:03:20.108Z,1009.98
2018-03-26T13:04:20.115Z,1009.99
2018-03-26T13:05:20.022Z,1009.96
2018-03-26T13:06:20.332Z,1009.98
2018-03-26T13:07:20.234Z,1009.97
2018-03-26T13:08:20.191Z,1009.97
2018-03-26T13:09:20.002Z,1010.01
2018-03-26T13:10:19.804Z,1010.02
2018-03-26T13:11:19.962Z,1009.98
2018-03-26T13:12:20.222Z,1009.94
2018-03-26T13:13:19.676Z,1009.96
2018-03-26T13:14:19.686Z,1009.96
2018-03-26T13:15:19.592Z,1009.97
2018-03-26T13:16:19.598Z,1010.00
2018-03-26T13:17:19.607Z,1010.03
2018-03-26T13:18:19.462Z,1010.00
2018-03-26T13:19:19.819Z,1009.96
2018-03-26T13:20:19.378Z,1009.99
2018-03-26T13:21:19.491Z,1009.88
2018-03-26T13:22:19.349Z,1009.94
2018-03-26T13:23:19.253Z,1009.94
2018-03-26T13:24:19.408Z,1009.95
2018-03-26T13:25:19.172Z,1009.96
2018-03-26T13:26:19.533Z,1009.95
2018-03-26T13:27:19.145Z,1010.00
2018-03-26T13:28:19.038Z,1009.96
2018-03-26T13:29:19.049Z,1009.98
2018-03-26T13:30:19.012Z,1010.00
2018-03-26T13:31:18.967Z,1009.96
2018-03-26T13:32:18.923Z,1010.01